Valleyview, Canada
Current Conditions -  °F | °C
As of 8:00 PM on Friday 21 Nov 2014 (Local Time) from CYQU Reporting Station
Haze Haze  
Wind Chill: 18°   Ceiling: 200
Heat Index: 30°   Visibility: 0.75mi
Dew Point: 30°   Wind: 20mph
Humidity: 100%   Direction: 50°NE
Pressure: 29.26"   Gusts: NA
Location:  55.07°N, 117.28°W
Report Text: CYQU 220300Z 05017KT 3/4SM BR VV002 M01/M01 A2926 RMK FG8 SLP935
Loading
Personal Weather Stations






























Interactive Weather Map New forecast layout! Learn more

10-Day Weather Forecast

Advertisements
Track Severe Weather on mobile